world map with GOTK marked

GOTK - Airport

This information may not be accurate or current and is not valid for navigation or flight planning. No warranty of fitness for any purpose is made or implied.

flag of Senegal

Donate via PayPal

Additional information is available on the NEW Great Circle Mapper

Location
City:  KÚdougou, KÚdougou, Senegal
Name:KÚdougou Airport
ICAO / IATA:GOTK / KGG

Details
Type:Airport (Aerodrome, Airfield)
Latitude:12░34'20"N (12.572292)
Longitude:12░13'13"W (-12.220332)
Datum:WGS 1984
Elevation:584 ft (178 m)
Runways:1
Longest:5906 × 148 ft (1800 × 45 m)

Time
Timezone:UTC+0 (DST+2)
Local Time:

Weather
METAR:GOTK  041200Z 08004KT CAVOK 32/09 Q1013

Related Locations
Nearby:
Farthest:MTV: 12355 mi / 19883 km
Ablow [Mota Lava], Mota Lava Island, TOB, VU

Find:

   beyond  
but within

Other Information
Maps:
Sources:

  


 


Great Circle Mapper   Great Circle Mapper
Great Circle Mapper FAQ   Great Circle Mapper FAQ
  Karl's Home Page
KLS▓   KLS▓ Home
   GC on Facebook
Airlines of the World   Airlines of the World
Donate via PayPal


Copyright © 2004-2019, Karl L. Swartz. All rights reserved.
All trademarks mentioned herein belong to their respective owners.

Please see credits for attribution and copyright information.

Karl Swartz <karl@kls2.com>
  Powered by FreeBSD
Valid HTML 4.01!
Labeled with ICRA
hCard Microformat
Geo Microformat